Boca Raton, FL (33428)

5:16 PM EDT on July 23, 2017 (GMT -0400)
Boca (C6162) | | Change Station

Elev 12 ft 26.34 °N, 80.21 °W | Updated 9 seconds ago

Mostly Cloudy
Mostly Cloudy
86.1 °F
Feels Like 93 °F
N
0.0
Wind Variable Wind from North
Gusts 0.0 mph

Today
High -- | Low -- °F
--% Chance of Precip.
Yesterday
High -- | Low -- °F
Precip. -- in
Pressure 30.03 in
Visibility 10.0 miles
Clouds Few 3400 ft
Mostly Cloudy 25000 ft
Heat Index 93 °F
Dew Point 73 °F
Humidity 65%
Rainfall 0.00 in
Snow Depth Not available.
6:41 AM 8:12 PM
New Moon, 0% visible
METAR KPMP 232053Z 14010KT 10SM FEW034 BKN250 31/23 A3002 RMK AO2 LTG DSNT N AND NW SLP167 T03060233 57011
Pressure 30.03 in
Visibility 10.0 miles
Clouds Few 3400 ft
Mostly Cloudy 25000 ft
Heat Index 93 °F
Dew Point 73 °F
Humidity 65%
Rainfall 0.00 in
Snow Depth Not available.
6:41 AM 8:12 PM
New Moon, 0% visible
METAR KPMP 232053Z 14010KT 10SM FEW034 BKN250 31/23 A3002 RMK AO2 LTG DSNT N AND NW SLP167 T03060233 57011

Get Severe Weather Alerts

Thanks for signing up!

Be on the lookout for a verification email in your inbox.

You'll start receiving the daily forecast at 6 AM.

×

10-Day Weather Forecast

Almanac

Astronomy

Jul. 23, 2017 Rise Set
Actual Time
Civil Twilight
Nautical Twilight
Astronomical Twilight
Moon
Length of Visible Light
Length of Day
Tomorrow will be .
, % of the Moon is Illuminated

Today's Extremes

State Highs State Lows

Community

WunderPhotos

Category 6

Welcome to Category 6. This is the collective home for Weather Underground's featured writeups by Dr. Jeff Masters (right), Bob Henson (left), Chris Burt, and other regular contributors.

Nearby

Air Quality

  Air Quality AQ Index Pollutant
Not available.

Snow Depth

Station Depth Elevation

Earthquake Activity

City Distance Mag. Time & Date
Minimum magnitude displayed is 2.5.

Coastal Water Temperatures

Place Temperature

Stations

Nearby Weather Stations

Station Location Temp. Windchill Dew Point Humidity Wind Precip. Elev Updated Type
                   

Watches & Warnings

There are currently no watches in effect.